Dubai Fortune — H9SA — position and weather

sailwx.info

Track history (hours):
 
Tides and Currents Weather Stations Pressure Air Temp Water Temp Dewpoint Dewpoint Depression Visibility Wind Speed Wind Dir Waves Ship Positions

Dubai Fortune

Last reported at 2014-Oct-18 22:08 UTC. Time now 2014-Oct-21 15:14 UTC.
Position N 22°54' E 119°56'.

Length 188 m; draft 11.8 m.

Type: Cargo ship. MMSI: 353316000.

Date/timePositionNaut miles runAvg speedWind from/ knotsBaromVisibWave heightAir tempDewpointWater temp
2014-Oct-18 22:08N 22°54' E 119°56'710.8
2014-Oct-18 21:30N 22°47' E 119°56'1010.0
2014-Oct-18 20:32N 22°37' E 119°54'38 9.3
2014-Oct-18 16:29N 22°05' E 119°33'  
2014-Oct-11 18:33N 01°15' E 104°04'4 3.3
2014-Oct-11 17:23N 01°17' E 104°01'0 0.0
2014-Oct-11 16:29N 01°17' E 104°01'0 0.0
2014-Oct-11 15:32N 01°17' E 104°01'0 0.1
2014-Oct-11 14:32N 01°17' E 104°01'0 0.1
2014-Oct-11 13:23N 01°17' E 104°01'0 0.1
2014-Oct-11 12:20N 01°17' E 104°01'0 0.0
2014-Oct-11 11:26N 01°17' E 104°01'0 0.0
2014-Oct-11 10:32N 01°17' E 104°01'0 0.0
2014-Oct-11 09:32N 01°17' E 104°01'0 0.0
2014-Oct-11 08:32N 01°17' E 104°01'0 0.2
2014-Oct-11 07:29N 01°17' E 104°01'3 3.8
2014-Oct-11 06:33N 01°16' E 103°58'8 8.0
2014-Oct-11 05:33N 01°11' E 103°51'10 9.8
2014-Oct-11 04:32N 01°05' E 103°43'  
Track history (hours):
 
Tides and Currents Weather Stations Pressure Air Temp Water Temp Dewpoint Dewpoint Depression Visibility Wind Speed Wind Dir Waves Ship Positions

Dubai Fortune

Last reported at 2014-Oct-18 22:08 UTC. Time now 2014-Oct-21 15:14 UTC.
Position N 22°54' E 119°56'.

Length 188 m; draft 11.8 m.

Type: Cargo ship. MMSI: 353316000.

Date/timePositionNaut miles runAvg speedWind from/ knotsBaromVisibWave heightAir tempDewpointWater temp
2014-Oct-18 22:08N 22°54' E 119°56'710.8
2014-Oct-18 21:30N 22°47' E 119°56'1010.0
2014-Oct-18 20:32N 22°37' E 119°54'38 9.3
2014-Oct-18 16:29N 22°05' E 119°33'  
2014-Oct-11 18:33N 01°15' E 104°04'4 3.3
2014-Oct-11 17:23N 01°17' E 104°01'0 0.0
2014-Oct-11 16:29N 01°17' E 104°01'0 0.0
2014-Oct-11 15:32N 01°17' E 104°01'0 0.1
2014-Oct-11 14:32N 01°17' E 104°01'0 0.1
2014-Oct-11 13:23N 01°17' E 104°01'0 0.1
2014-Oct-11 12:20N 01°17' E 104°01'0 0.0
2014-Oct-11 11:26N 01°17' E 104°01'0 0.0
2014-Oct-11 10:32N 01°17' E 104°01'0 0.0
2014-Oct-11 09:32N 01°17' E 104°01'0 0.0
2014-Oct-11 08:32N 01°17' E 104°01'0 0.2
2014-Oct-11 07:29N 01°17' E 104°01'3 3.8
2014-Oct-11 06:33N 01°16' E 103°58'8 8.0
2014-Oct-11 05:33N 01°11' E 103°51'10 9.8
2014-Oct-11 04:32N 01°05' E 103°43'  

Dump ship's entire track history